sensor_id;sensor_type;location;lat;lon;timestamp;pressure;altitude;pressure_sealevel;temperature;humidity
69153;BME280;56261;51.580;4.578;2023-04-29T00:00:00;101650.47;;;9.26;100.00
69153;BME280;56261;51.580;4.578;2023-04-29T00:02:25;101658.16;;;9.19;100.00
69153;BME280;56261;51.580;4.578;2023-04-29T00:04:52;101651.31;;;9.17;100.00
69153;BME280;56261;51.580;4.578;2023-04-29T00:07:18;101661.94;;;9.17;100.00
69153;BME280;56261;51.580;4.578;2023-04-29T00:09:44;101657.88;;;9.12;100.00
69153;BME280;56261;51.580;4.578;2023-04-29T00:12:09;101653.97;;;9.07;100.00
69153;BME280;56261;51.580;4.578;2023-04-29T00:14:35;101659.72;;;9.12;100.00
69153;BME280;56261;51.580;4.578;2023-04-29T00:17:00;101659.28;;;9.17;100.00
69153;BME280;56261;51.580;4.578;2023-04-29T00:19:26;101659.16;;;9.18;100.00
69153;BME280;56261;51.580;4.578;2023-04-29T00:21:51;101661.09;;;9.26;100.00
69153;BME280;56261;51.580;4.578;2023-04-29T00:24:18;101660.81;;;9.19;100.00
69153;BME280;56261;51.580;4.578;2023-04-29T00:26:44;101665.03;;;9.22;100.00
69153;BME280;56261;51.580;4.578;2023-04-29T00:29:09;101673.28;;;9.28;100.00
69153;BME280;56261;51.580;4.578;2023-04-29T00:31:35;101672.88;;;9.23;100.00
69153;BME280;56261;51.580;4.578;2023-04-29T00:34:01;101675.81;;;9.30;100.00
69153;BME280;56261;51.580;4.578;2023-04-29T00:36:27;101678.47;;;9.30;100.00
69153;BME280;56261;51.580;4.578;2023-04-29T00:38:52;101671.91;;;9.34;100.00
69153;BME280;56261;51.580;4.578;2023-04-29T00:41:18;101685.09;;;9.35;100.00
69153;BME280;56261;51.580;4.578;2023-04-29T00:43:44;101679.88;;;9.34;100.00
69153;BME280;56261;51.580;4.578;2023-04-29T00:46:09;101677.78;;;9.28;100.00
69153;BME280;56261;51.580;4.578;2023-04-29T00:48:34;101671.63;;;9.27;100.00
69153;BME280;56261;51.580;4.578;2023-04-29T00:51:00;101677.63;;;9.39;100.00
69153;BME280;56261;51.580;4.578;2023-04-29T00:53:26;101668.81;;;9.39;100.00
69153;BME280;56261;51.580;4.578;2023-04-29T00:55:52;101680.72;;;9.34;100.00
69153;BME280;56261;51.580;4.578;2023-04-29T00:58:18;101682.81;;;9.41;100.00
69153;BME280;56261;51.580;4.578;2023-04-29T01:00:44;101688.56;;;9.36;100.00
69153;BME280;56261;51.580;4.578;2023-04-29T01:03:11;101689.25;;;9.28;100.00
69153;BME280;56261;51.580;4.578;2023-04-29T01:05:40;101684.09;;;9.27;100.00
69153;BME280;56261;51.580;4.578;2023-04-29T01:08:20;101678.63;;;9.28;100.00
69153;BME280;56261;51.580;4.578;2023-04-29T01:11:07;101694.03;;;9.25;100.00
69153;BME280;56261;51.580;4.578;2023-04-29T01:13:50;101697.25;;;9.28;100.00
69153;BME280;56261;51.580;4.578;2023-04-29T01:16:33;101695.44;;;9.29;100.00
69153;BME280;56261;51.580;4.578;2023-04-29T01:19:24;101702.00;;;9.34;100.00
69153;BME280;56261;51.580;4.578;2023-04-29T01:21:55;101693.91;;;9.36;100.00
69153;BME280;56261;51.580;4.578;2023-04-29T01:24:21;101705.25;;;9.38;100.00
69153;BME280;56261;51.580;4.578;2023-04-29T01:27:00;101700.78;;;9.29;100.00
69153;BME280;56261;51.580;4.578;2023-04-29T01:29:37;101699.94;;;9.38;100.00
69153;BME280;56261;51.580;4.578;2023-04-29T01:32:05;101706.63;;;9.32;100.00
69153;BME280;56261;51.580;4.578;2023-04-29T01:37:40;101705.25;;;9.19;100.00
69153;BME280;56261;51.580;4.578;2023-04-29T01:40:21;101710.56;;;9.19;100.00
69153;BME280;56261;51.580;4.578;2023-04-29T01:43:00;101726.13;;;9.23;100.00
69153;BME280;56261;51.580;4.578;2023-04-29T01:45:26;101722.19;;;9.18;100.00
69153;BME280;56261;51.580;4.578;2023-04-29T01:47:53;101719.13;;;9.22;100.00
69153;BME280;56261;51.580;4.578;2023-04-29T01:50:21;101719.53;;;9.18;100.00
69153;BME280;56261;51.580;4.578;2023-04-29T01:52:47;101722.63;;;9.23;100.00
69153;BME280;56261;51.580;4.578;2023-04-29T01:55:12;101721.50;;;9.25;100.00
69153;BME280;56261;51.580;4.578;2023-04-29T01:57:38;101718.69;;;9.27;100.00
69153;BME280;56261;51.580;4.578;2023-04-29T02:00:03;101726.13;;;9.23;100.00
69153;BME280;56261;51.580;4.578;2023-04-29T02:02:29;101733.97;;;9.25;100.00
69153;BME280;56261;51.580;4.578;2023-04-29T02:04:54;101728.63;;;9.15;100.00
69153;BME280;56261;51.580;4.578;2023-04-29T02:07:20;101728.78;;;9.13;100.00
69153;BME280;56261;51.580;4.578;2023-04-29T02:09:46;101738.44;;;9.05;100.00
69153;BME280;56261;51.580;4.578;2023-04-29T02:12:11;101734.06;;;9.04;100.00
69153;BME280;56261;51.580;4.578;2023-04-29T02:14:36;101739.13;;;9.07;100.00
69153;BME280;56261;51.580;4.578;2023-04-29T02:17:02;101733.94;;;9.05;100.00
69153;BME280;56261;51.580;4.578;2023-04-29T02:19:27;101747.53;;;9.02;100.00
69153;BME280;56261;51.580;4.578;2023-04-29T02:21:52;101747.81;;;9.09;100.00
69153;BME280;56261;51.580;4.578;2023-04-29T02:24:18;101739.97;;;9.07;100.00
69153;BME280;56261;51.580;4.578;2023-04-29T02:26:43;101764.75;;;9.08;100.00
69153;BME280;56261;51.580;4.578;2023-04-29T02:29:09;101768.41;;;9.07;100.00
69153;BME280;56261;51.580;4.578;2023-04-29T02:31:34;101762.63;;;8.92;100.00
69153;BME280;56261;51.580;4.578;2023-04-29T02:34:00;101764.44;;;8.91;100.00
69153;BME280;56261;51.580;4.578;2023-04-29T02:36:25;101758.41;;;8.80;100.00
69153;BME280;56261;51.580;4.578;2023-04-29T02:38:51;101785.44;;;8.85;100.00
69153;BME280;56261;51.580;4.578;2023-04-29T02:41:19;101773.66;;;8.87;100.00
69153;BME280;56261;51.580;4.578;2023-04-29T02:43:45;101786.38;;;8.84;100.00
69153;BME280;56261;51.580;4.578;2023-04-29T02:46:11;101784.44;;;8.86;100.00
69153;BME280;56261;51.580;4.578;2023-04-29T02:48:36;101793.97;;;8.88;100.00
69153;BME280;56261;51.580;4.578;2023-04-29T02:51:02;101792.56;;;8.84;100.00
69153;BME280;56261;51.580;4.578;2023-04-29T02:53:27;101782.72;;;8.75;100.00
69153;BME280;56261;51.580;4.578;2023-04-29T02:55:53;101795.88;;;8.77;100.00
69153;BME280;56261;51.580;4.578;2023-04-29T02:58:18;101793.94;;;8.79;100.00
69153;BME280;56261;51.580;4.578;2023-04-29T03:00:44;101788.19;;;8.73;100.00
69153;BME280;56261;51.580;4.578;2023-04-29T03:03:09;101795.47;;;8.81;100.00
69153;BME280;56261;51.580;4.578;2023-04-29T03:05:35;101801.50;;;8.83;100.00
69153;BME280;56261;51.580;4.578;2023-04-29T03:08:00;101802.03;;;8.77;100.00
69153;BME280;56261;51.580;4.578;2023-04-29T03:10:27;101798.41;;;8.78;100.00
69153;BME280;56261;51.580;4.578;2023-04-29T03:12:53;101803.22;;;8.84;100.00
69153;BME280;56261;51.580;4.578;2023-04-29T03:15:18;101804.59;;;8.88;100.00
69153;BME280;56261;51.580;4.578;2023-04-29T03:17:44;101808.53;;;8.84;100.00
69153;BME280;56261;51.580;4.578;2023-04-29T03:20:10;101809.78;;;8.90;100.00
69153;BME280;56261;51.580;4.578;2023-04-29T03:22:36;101817.13;;;8.98;100.00
69153;BME280;56261;51.580;4.578;2023-04-29T03:25:01;101799.28;;;8.88;100.00
69153;BME280;56261;51.580;4.578;2023-04-29T03:27:27;101811.44;;;8.81;100.00
69153;BME280;56261;51.580;4.578;2023-04-29T03:29:52;101810.19;;;8.85;100.00
69153;BME280;56261;51.580;4.578;2023-04-29T03:32:17;101816.53;;;8.94;100.00
69153;BME280;56261;51.580;4.578;2023-04-29T03:34:43;101819.47;;;8.91;100.00
69153;BME280;56261;51.580;4.578;2023-04-29T03:37:08;101809.91;;;8.88;100.00
69153;BME280;56261;51.580;4.578;2023-04-29T03:39:33;101815.28;;;8.98;100.00
69153;BME280;56261;51.580;4.578;2023-04-29T03:41:59;101815.84;;;9.02;100.00
69153;BME280;56261;51.580;4.578;2023-04-29T03:44:25;101820.47;;;9.00;100.00
69153;BME280;56261;51.580;4.578;2023-04-29T03:46:51;101809.66;;;8.91;100.00
69153;BME280;56261;51.580;4.578;2023-04-29T03:49:17;101823.94;;;8.90;100.00
69153;BME280;56261;51.580;4.578;2023-04-29T03:51:42;101823.69;;;8.93;100.00
69153;BME280;56261;51.580;4.578;2023-04-29T03:54:10;101823.81;;;9.02;100.00
69153;BME280;56261;51.580;4.578;2023-04-29T03:56:35;101824.69;;;9.02;100.00
69153;BME280;56261;51.580;4.578;2023-04-29T03:59:01;101817.78;;;9.00;100.00
69153;BME280;56261;51.580;4.578;2023-04-29T04:01:26;101819.19;;;8.94;100.00
69153;BME280;56261;51.580;4.578;2023-04-29T04:03:52;101825.03;;;8.88;100.00
69153;BME280;56261;51.580;4.578;2023-04-29T04:06:17;101831.78;;;8.92;100.00
69153;BME280;56261;51.580;4.578;2023-04-29T04:08:42;101832.94;;;8.99;100.00
69153;BME280;56261;51.580;4.578;2023-04-29T04:11:11;101839.94;;;9.00;100.00
69153;BME280;56261;51.580;4.578;2023-04-29T04:13:40;101839.56;;;9.14;100.00
69153;BME280;56261;51.580;4.578;2023-04-29T04:16:08;101842.66;;;9.20;100.00
69153;BME280;56261;51.580;4.578;2023-04-29T04:18:35;101841.81;;;9.19;100.00
69153;BME280;56261;51.580;4.578;2023-04-29T04:21:07;101829.31;;;9.10;100.00
69153;BME280;56261;51.580;4.578;2023-04-29T04:23:33;101837.75;;;9.15;100.00
69153;BME280;56261;51.580;4.578;2023-04-29T04:25:58;101851.03;;;9.15;100.00
69153;BME280;56261;51.580;4.578;2023-04-29T04:28:24;101843.94;;;9.16;100.00
69153;BME280;56261;51.580;4.578;2023-04-29T04:30:49;101853.47;;;9.18;100.00
69153;BME280;56261;51.580;4.578;2023-04-29T04:33:15;101855.00;;;9.21;100.00
69153;BME280;56261;51.580;4.578;2023-04-29T04:35:41;101861.44;;;9.18;100.00
69153;BME280;56261;51.580;4.578;2023-04-29T04:38:06;101867.06;;;9.25;100.00
69153;BME280;56261;51.580;4.578;2023-04-29T04:40:33;101868.44;;;9.19;100.00
69153;BME280;56261;51.580;4.578;2023-04-29T04:42:58;101873.50;;;9.22;100.00
69153;BME280;56261;51.580;4.578;2023-04-29T04:45:23;101881.09;;;9.27;100.00
69153;BME280;56261;51.580;4.578;2023-04-29T04:47:49;101875.47;;;9.20;100.00
69153;BME280;56261;51.580;4.578;2023-04-29T04:50:14;101880.06;;;9.18;100.00
69153;BME280;56261;51.580;4.578;2023-04-29T04:52:40;101885.41;;;9.28;100.00
69153;BME280;56261;51.580;4.578;2023-04-29T04:55:05;101891.44;;;9.30;100.00
69153;BME280;56261;51.580;4.578;2023-04-29T04:57:31;101895.66;;;9.32;100.00
69153;BME280;56261;51.580;4.578;2023-04-29T04:59:56;101901.50;;;9.26;100.00
69153;BME280;56261;51.580;4.578;2023-04-29T05:02:22;101895.84;;;9.41;100.00
69153;BME280;56261;51.580;4.578;2023-04-29T05:04:47;101903.81;;;9.41;100.00
69153;BME280;56261;51.580;4.578;2023-04-29T05:07:13;101914.47;;;9.41;100.00
69153;BME280;56261;51.580;4.578;2023-04-29T05:09:38;101902.81;;;9.42;100.00
69153;BME280;56261;51.580;4.578;2023-04-29T05:12:03;101905.91;;;9.37;100.00
69153;BME280;56261;51.580;4.578;2023-04-29T05:14:29;101915.44;;;9.40;100.00
69153;BME280;56261;51.580;4.578;2023-04-29T05:16:58;101923.16;;;9.43;100.00
69153;BME280;56261;51.580;4.578;2023-04-29T05:19:23;101925.84;;;9.43;100.00
69153;BME280;56261;51.580;4.578;2023-04-29T05:21:52;101922.94;;;9.55;100.00
69153;BME280;56261;51.580;4.578;2023-04-29T05:24:20;101917.31;;;9.59;100.00
69153;BME280;56261;51.580;4.578;2023-04-29T05:26:45;101919.16;;;9.58;100.00
69153;BME280;56261;51.580;4.578;2023-04-29T05:29:11;101923.91;;;9.54;100.00
69153;BME280;56261;51.580;4.578;2023-04-29T05:31:36;101925.19;;;9.60;100.00
69153;BME280;56261;51.580;4.578;2023-04-29T05:34:03;101925.31;;;9.68;100.00
69153;BME280;56261;51.580;4.578;2023-04-29T05:36:28;101927.56;;;9.63;100.00
69153;BME280;56261;51.580;4.578;2023-04-29T05:38:54;101929.41;;;9.63;100.00
69153;BME280;56261;51.580;4.578;2023-04-29T05:41:19;101927.13;;;9.58;100.00
69153;BME280;56261;51.580;4.578;2023-04-29T05:43:45;101942.00;;;9.70;100.00
69153;BME280;56261;51.580;4.578;2023-04-29T05:46:10;101948.34;;;9.69;100.00
69153;BME280;56261;51.580;4.578;2023-04-29T05:48:36;101961.75;;;9.58;100.00
69153;BME280;56261;51.580;4.578;2023-04-29T05:51:01;101943.97;;;9.59;100.00
69153;BME280;56261;51.580;4.578;2023-04-29T05:53:27;101950.25;;;9.57;100.00
69153;BME280;56261;51.580;4.578;2023-04-29T05:55:52;101952.66;;;9.61;100.00
69153;BME280;56261;51.580;4.578;2023-04-29T05:58:17;101955.97;;;9.53;100.00
69153;BME280;56261;51.580;4.578;2023-04-29T06:00:43;101959.66;;;9.62;100.00
69153;BME280;56261;51.580;4.578;2023-04-29T06:03:09;101957.28;;;9.59;100.00
69153;BME280;56261;51.580;4.578;2023-04-29T06:05:37;101971.03;;;9.64;100.00
69153;BME280;56261;51.580;4.578;2023-04-29T06:08:03;101972.72;;;9.65;100.00
69153;BME280;56261;51.580;4.578;2023-04-29T06:10:30;101969.78;;;9.68;100.00
69153;BME280;56261;51.580;4.578;2023-04-29T06:12:56;101972.72;;;9.74;100.00
69153;BME280;56261;51.580;4.578;2023-04-29T06:15:21;101969.38;;;9.72;100.00
69153;BME280;56261;51.580;4.578;2023-04-29T06:17:47;101973.03;;;9.81;100.00
69153;BME280;56261;51.580;4.578;2023-04-29T06:20:13;101979.38;;;9.90;100.00
69153;BME280;56261;51.580;4.578;2023-04-29T06:22:38;101986.13;;;9.94;100.00
69153;BME280;56261;51.580;4.578;2023-04-29T06:25:04;101986.81;;;9.96;100.00
69153;BME280;56261;51.580;4.578;2023-04-29T06:27:29;101989.38;;;10.07;100.00
69153;BME280;56261;51.580;4.578;2023-04-29T06:29:54;101997.50;;;10.06;100.00
69153;BME280;56261;51.580;4.578;2023-04-29T06:32:20;101999.84;;;9.99;100.00
69153;BME280;56261;51.580;4.578;2023-04-29T06:34:45;102003.94;;;10.03;100.00
69153;BME280;56261;51.580;4.578;2023-04-29T06:37:11;102006.19;;;10.08;100.00
69153;BME280;56261;51.580;4.578;2023-04-29T06:39:36;102009.28;;;10.13;100.00
69153;BME280;56261;51.580;4.578;2023-04-29T06:42:02;102001.44;;;10.21;100.00
69153;BME280;56261;51.580;4.578;2023-04-29T06:44:27;102014.91;;;10.19;100.00
69153;BME280;56261;51.580;4.578;2023-04-29T06:46:53;102020.84;;;10.33;100.00
69153;BME280;56261;51.580;4.578;2023-04-29T06:49:19;102032.16;;;10.15;100.00
69153;BME280;56261;51.580;4.578;2023-04-29T06:51:46;102028.97;;;10.31;100.00
69153;BME280;56261;51.580;4.578;2023-04-29T06:54:11;102032.75;;;10.29;100.00
69153;BME280;56261;51.580;4.578;2023-04-29T06:56:37;102026.88;;;10.35;100.00
69153;BME280;56261;51.580;4.578;2023-04-29T06:59:02;102037.72;;;10.43;100.00
69153;BME280;56261;51.580;4.578;2023-04-29T07:01:28;102031.25;;;10.55;100.00
69153;BME280;56261;51.580;4.578;2023-04-29T07:03:54;102039.84;;;10.49;100.00
69153;BME280;56261;51.580;4.578;2023-04-29T07:06:19;102045.72;;;10.43;100.00
69153;BME280;56261;51.580;4.578;2023-04-29T07:08:44;102046.13;;;10.38;100.00
69153;BME280;56261;51.580;4.578;2023-04-29T07:11:11;102049.22;;;10.44;100.00
69153;BME280;56261;51.580;4.578;2023-04-29T07:13:37;102055.13;;;10.47;100.00
69153;BME280;56261;51.580;4.578;2023-04-29T07:16:02;102064.25;;;10.64;100.00
69153;BME280;56261;51.580;4.578;2023-04-29T07:18:27;102065.09;;;10.84;100.00
69153;BME280;56261;51.580;4.578;2023-04-29T07:20:53;102062.28;;;10.66;100.00
69153;BME280;56261;51.580;4.578;2023-04-29T07:23:20;102068.88;;;10.43;100.00
69153;BME280;56261;51.580;4.578;2023-04-29T07:25:45;102065.94;;;10.46;100.00
69153;BME280;56261;51.580;4.578;2023-04-29T07:28:11;102065.78;;;10.47;100.00
69153;BME280;56261;51.580;4.578;2023-04-29T07:30:36;102072.41;;;10.72;100.00
69153;BME280;56261;51.580;4.578;2023-04-29T07:33:02;102075.50;;;10.68;100.00
69153;BME280;56261;51.580;4.578;2023-04-29T07:35:28;102071.13;;;10.86;100.00
69153;BME280;56261;51.580;4.578;2023-04-29T07:37:54;102073.09;;;10.94;100.00
69153;BME280;56261;51.580;4.578;2023-04-29T07:40:20;102077.03;;;10.99;100.00
69153;BME280;56261;51.580;4.578;2023-04-29T07:42:45;102080.94;;;11.15;100.00
69153;BME280;56261;51.580;4.578;2023-04-29T07:45:11;102066.97;;;11.50;100.00
69153;BME280;56261;51.580;4.578;2023-04-29T07:47:38;102074.25;;;11.95;100.00
69153;BME280;56261;51.580;4.578;2023-04-29T07:50:04;102071.75;;;11.74;100.00
69153;BME280;56261;51.580;4.578;2023-04-29T07:52:29;102078.22;;;11.91;100.00
69153;BME280;56261;51.580;4.578;2023-04-29T07:54:55;102079.00;;;12.29;100.00
69153;BME280;56261;51.580;4.578;2023-04-29T07:57:21;102077.91;;;11.94;100.00
69153;BME280;56261;51.580;4.578;2023-04-29T07:59:50;102081.63;;;12.11;100.00
69153;BME280;56261;51.580;4.578;2023-04-29T08:02:16;102074.56;;;12.38;100.00
69153;BME280;56261;51.580;4.578;2023-04-29T08:04:42;102080.75;;;11.93;100.00
69153;BME280;56261;51.580;4.578;2023-04-29T08:07:07;102083.81;;;11.98;100.00
69153;BME280;56261;51.580;4.578;2023-04-29T08:09:33;102086.19;;;12.29;100.00
69153;BME280;56261;51.580;4.578;2023-04-29T08:11:58;102083.44;;;12.38;100.00
69153;BME280;56261;51.580;4.578;2023-04-29T08:14:24;102090.06;;;12.34;100.00
69153;BME280;56261;51.580;4.578;2023-04-29T08:16:49;102083.28;;;12.94;100.00
69153;BME280;56261;51.580;4.578;2023-04-29T08:19:15;102085.06;;;12.49;100.00
69153;BME280;56261;51.580;4.578;2023-04-29T08:21:40;102085.84;;;12.14;100.00
69153;BME280;56261;51.580;4.578;2023-04-29T08:24:06;102089.59;;;12.21;100.00
69153;BME280;56261;51.580;4.578;2023-04-29T08:26:32;102096.72;;;12.02;100.00
69153;BME280;56261;51.580;4.578;2023-04-29T08:28:57;102090.84;;;12.27;100.00
69153;BME280;56261;51.580;4.578;2023-04-29T08:31:23;102095.44;;;12.88;100.00
69153;BME280;56261;51.580;4.578;2023-04-29T08:33:48;102089.00;;;13.61;100.00
69153;BME280;56261;51.580;4.578;2023-04-29T08:36:14;102087.13;;;13.61;100.00
69153;BME280;56261;51.580;4.578;2023-04-29T08:38:39;102086.78;;;13.12;100.00
69153;BME280;56261;51.580;4.578;2023-04-29T08:41:08;102088.28;;;13.33;100.00
69153;BME280;56261;51.580;4.578;2023-04-29T08:43:38;102096.06;;;13.18;100.00
69153;BME280;56261;51.580;4.578;2023-04-29T08:46:05;102098.59;;;13.45;100.00
69153;BME280;56261;51.580;4.578;2023-04-29T08:48:31;102097.13;;;13.07;100.00
69153;BME280;56261;51.580;4.578;2023-04-29T08:50:56;102108.09;;;13.58;100.00
69153;BME280;56261;51.580;4.578;2023-04-29T08:53:26;102106.47;;;14.07;100.00
69153;BME280;56261;51.580;4.578;2023-04-29T08:55:53;102110.63;;;13.41;100.00
69153;BME280;56261;51.580;4.578;2023-04-29T08:58:19;102117.53;;;13.26;100.00
69153;BME280;56261;51.580;4.578;2023-04-29T09:00:45;102118.53;;;13.25;100.00
69153;BME280;56261;51.580;4.578;2023-04-29T09:03:17;102112.97;;;13.00;100.00
69153;BME280;56261;51.580;4.578;2023-04-29T09:05:48;102131.25;;;13.41;100.00
69153;BME280;56261;51.580;4.578;2023-04-29T09:08:17;102126.91;;;13.40;100.00
69153;BME280;56261;51.580;4.578;2023-04-29T09:10:43;102128.88;;;13.20;100.00
69153;BME280;56261;51.580;4.578;2023-04-29T09:13:08;102118.13;;;13.90;100.00
69153;BME280;56261;51.580;4.578;2023-04-29T09:15:37;102119.72;;;13.75;100.00
69153;BME280;56261;51.580;4.578;2023-04-29T09:18:04;102123.03;;;13.68;100.00
69153;BME280;56261;51.580;4.578;2023-04-29T09:20:30;102124.81;;;14.79;100.00
69153;BME280;56261;51.580;4.578;2023-04-29T09:23:00;102120.13;;;14.81;100.00
69153;BME280;56261;51.580;4.578;2023-04-29T09:25:26;102122.47;;;15.42;100.00
69153;BME280;56261;51.580;4.578;2023-04-29T09:27:53;102127.34;;;14.97;100.00
69153;BME280;56261;51.580;4.578;2023-04-29T09:30:19;102124.31;;;15.49;100.00
69153;BME280;56261;51.580;4.578;2023-04-29T09:32:45;102128.69;;;15.42;100.00
69153;BME280;56261;51.580;4.578;2023-04-29T09:35:22;102133.50;;;14.14;100.00
69153;BME280;56261;51.580;4.578;2023-04-29T09:37:52;102143.66;;;13.42;100.00
69153;BME280;56261;51.580;4.578;2023-04-29T09:40:30;102148.03;;;13.07;100.00
69153;BME280;56261;51.580;4.578;2023-04-29T09:42:56;102154.91;;;13.09;100.00
69153;BME280;56261;51.580;4.578;2023-04-29T09:45:44;102151.91;;;13.75;100.00
69153;BME280;56261;51.580;4.578;2023-04-29T09:48:11;102140.63;;;14.40;100.00
69153;BME280;56261;51.580;4.578;2023-04-29T09:50:38;102145.31;;;14.72;100.00
69153;BME280;56261;51.580;4.578;2023-04-29T09:53:05;102135.66;;;16.32;100.00
69153;BME280;56261;51.580;4.578;2023-04-29T09:58:30;102153.19;;;15.80;100.00
69153;BME280;56261;51.580;4.578;2023-04-29T10:01:01;102155.06;;;15.06;100.00
69153;BME280;56261;51.580;4.578;2023-04-29T10:03:39;102147.50;;;15.18;100.00
69153;BME280;56261;51.580;4.578;2023-04-29T10:06:07;102160.56;;;14.63;100.00
69153;BME280;56261;51.580;4.578;2023-04-29T10:08:33;102159.78;;;14.87;100.00
69153;BME280;56261;51.580;4.578;2023-04-29T10:11:03;102165.28;;;14.69;100.00
69153;BME280;56261;51.580;4.578;2023-04-29T10:13:30;102159.47;;;14.48;100.00
69153;BME280;56261;51.580;4.578;2023-04-29T10:18:34;102158.41;;;14.83;100.00
69153;BME280;56261;51.580;4.578;2023-04-29T10:21:02;102158.25;;;14.93;100.00
69153;BME280;56261;51.580;4.578;2023-04-29T10:23:29;102163.00;;;15.32;100.00
69153;BME280;56261;51.580;4.578;2023-04-29T10:25:56;102167.97;;;14.35;100.00
69153;BME280;56261;51.580;4.578;2023-04-29T10:28:23;102167.56;;;14.22;100.00
69153;BME280;56261;51.580;4.578;2023-04-29T10:30:50;102170.03;;;15.17;100.00
69153;BME280;56261;51.580;4.578;2023-04-29T10:33:16;102169.66;;;14.87;100.00
69153;BME280;56261;51.580;4.578;2023-04-29T10:35:43;102166.91;;;14.62;100.00
69153;BME280;56261;51.580;4.578;2023-04-29T10:38:19;102170.44;;;14.55;100.00
69153;BME280;56261;51.580;4.578;2023-04-29T10:40:49;102157.78;;;14.04;100.00
69153;BME280;56261;51.580;4.578;2023-04-29T10:43:24;102164.91;;;14.56;100.00
69153;BME280;56261;51.580;4.578;2023-04-29T10:46:16;102164.34;;;15.36;100.00
69153;BME280;56261;51.580;4.578;2023-04-29T10:48:43;102162.91;;;14.58;100.00
69153;BME280;56261;51.580;4.578;2023-04-29T10:51:08;102164.72;;;14.58;100.00
69153;BME280;56261;51.580;4.578;2023-04-29T10:53:34;102166.31;;;14.93;100.00
69153;BME280;56261;51.580;4.578;2023-04-29T10:56:09;102177.34;;;14.65;100.00
69153;BME280;56261;51.580;4.578;2023-04-29T10:58:44;102175.50;;;14.82;100.00
69153;BME280;56261;51.580;4.578;2023-04-29T11:01:14;102170.00;;;14.84;100.00
69153;BME280;56261;51.580;4.578;2023-04-29T11:03:47;102175.34;;;14.67;100.00
69153;BME280;56261;51.580;4.578;2023-04-29T11:06:14;102174.19;;;14.78;100.00
69153;BME280;56261;51.580;4.578;2023-04-29T11:08:40;102175.56;;;14.48;100.00
69153;BME280;56261;51.580;4.578;2023-04-29T11:11:06;102182.44;;;14.42;100.00
69153;BME280;56261;51.580;4.578;2023-04-29T11:13:37;102173.47;;;14.68;100.00
69153;BME280;56261;51.580;4.578;2023-04-29T11:16:10;102172.34;;;14.87;100.00
69153;BME280;56261;51.580;4.578;2023-04-29T11:19:08;102177.91;;;15.51;100.00
69153;BME280;56261;51.580;4.578;2023-04-29T11:21:36;102172.22;;;15.29;100.00
69153;BME280;56261;51.580;4.578;2023-04-29T11:24:03;102181.59;;;14.92;100.00
69153;BME280;56261;51.580;4.578;2023-04-29T11:26:33;102171.53;;;14.94;100.00
69153;BME280;56261;51.580;4.578;2023-04-29T11:28:59;102176.50;;;14.73;100.00
69153;BME280;56261;51.580;4.578;2023-04-29T11:31:31;102178.38;;;14.89;100.00
69153;BME280;56261;51.580;4.578;2023-04-29T11:33:58;102170.34;;;14.81;100.00
69153;BME280;56261;51.580;4.578;2023-04-29T11:36:24;102175.59;;;15.48;100.00
69153;BME280;56261;51.580;4.578;2023-04-29T11:38:52;102170.69;;;15.60;100.00
69153;BME280;56261;51.580;4.578;2023-04-29T11:41:18;102179.41;;;15.86;100.00
69153;BME280;56261;51.580;4.578;2023-04-29T11:43:46;102172.84;;;15.89;100.00
69153;BME280;56261;51.580;4.578;2023-04-29T11:46:13;102170.00;;;15.66;100.00
69153;BME280;56261;51.580;4.578;2023-04-29T11:48:45;102163.13;;;15.47;100.00
69153;BME280;56261;51.580;4.578;2023-04-29T11:51:17;102173.38;;;15.10;100.00
69153;BME280;56261;51.580;4.578;2023-04-29T11:53:46;102173.41;;;15.35;100.00
69153;BME280;56261;51.580;4.578;2023-04-29T11:56:12;102173.03;;;15.79;100.00
69153;BME280;56261;51.580;4.578;2023-04-29T11:58:37;102171.19;;;15.71;100.00
69153;BME280;56261;51.580;4.578;2023-04-29T12:01:03;102162.69;;;16.15;100.00
69153;BME280;56261;51.580;4.578;2023-04-29T12:03:31;102177.81;;;16.16;100.00
69153;BME280;56261;51.580;4.578;2023-04-29T12:05:56;102172.94;;;16.12;100.00
69153;BME280;56261;51.580;4.578;2023-04-29T12:08:24;102180.25;;;15.70;100.00
69153;BME280;56261;51.580;4.578;2023-04-29T12:10:51;102171.59;;;16.16;100.00
69153;BME280;56261;51.580;4.578;2023-04-29T12:13:17;102171.72;;;16.23;100.00
69153;BME280;56261;51.580;4.578;2023-04-29T12:15:44;102158.81;;;16.49;100.00
69153;BME280;56261;51.580;4.578;2023-04-29T12:18:11;102171.25;;;16.19;100.00
69153;BME280;56261;51.580;4.578;2023-04-29T12:20:37;102171.34;;;15.78;100.00
69153;BME280;56261;51.580;4.578;2023-04-29T12:23:16;102182.31;;;15.52;100.00
69153;BME280;56261;51.580;4.578;2023-04-29T12:25:48;102185.31;;;15.73;100.00
69153;BME280;56261;51.580;4.578;2023-04-29T12:28:14;102187.69;;;15.52;100.00
69153;BME280;56261;51.580;4.578;2023-04-29T12:30:40;102176.88;;;15.85;100.00
69153;BME280;56261;51.580;4.578;2023-04-29T12:33:07;102176.22;;;15.91;100.00
69153;BME280;56261;51.580;4.578;2023-04-29T12:35:34;102175.94;;;16.56;100.00
69153;BME280;56261;51.580;4.578;2023-04-29T12:37:59;102169.78;;;16.48;100.00
69153;BME280;56261;51.580;4.578;2023-04-29T12:40:25;102170.94;;;16.45;100.00
69153;BME280;56261;51.580;4.578;2023-04-29T12:42:52;102178.91;;;17.01;100.00
69153;BME280;56261;51.580;4.578;2023-04-29T12:45:28;102173.34;;;16.71;100.00
69153;BME280;56261;51.580;4.578;2023-04-29T12:47:56;102175.00;;;16.80;100.00
69153;BME280;56261;51.580;4.578;2023-04-29T12:50:32;102185.31;;;16.69;100.00
69153;BME280;56261;51.580;4.578;2023-04-29T12:52:58;102179.50;;;16.88;100.00